createdAt,value
2019-01-14T00:01:07.208Z,80.66
2019-01-14T00:03:37.022Z,80.63
2019-01-14T00:06:10.215Z,80.70
2019-01-14T00:08:38.920Z,80.67
2019-01-14T00:11:08.914Z,80.71
2019-01-14T00:13:38.676Z,80.72
2019-01-14T00:16:08.697Z,80.73
2019-01-14T00:18:38.524Z,80.59
2019-01-14T00:21:08.445Z,80.44
2019-01-14T00:23:38.636Z,79.99
2019-01-14T00:26:08.609Z,79.81
2019-01-14T00:28:38.313Z,79.69
2019-01-14T00:31:08.181Z,79.48
2019-01-14T00:33:38.165Z,79.28
2019-01-14T00:36:08.037Z,79.24
2019-01-14T00:38:38.157Z,79.30
2019-01-14T00:41:08.077Z,79.43
2019-01-14T00:43:37.963Z,79.58
2019-01-14T00:46:07.923Z,79.63
2019-01-14T00:48:37.714Z,79.45
2019-01-14T00:51:08.785Z,79.26
2019-01-14T00:53:38.556Z,79.10
2019-01-14T00:56:08.276Z,79.03
2019-01-14T00:58:39.420Z,79.03
2019-01-14T01:01:09.243Z,79.45
2019-01-14T01:03:39.151Z,79.39
2019-01-14T01:06:08.908Z,79.09
2019-01-14T01:08:38.667Z,79.17
2019-01-14T01:11:08.485Z,79.55
2019-01-14T01:13:38.451Z,79.59
2019-01-14T01:16:08.315Z,79.16
2019-01-14T01:18:38.031Z,79.01
2019-01-14T01:21:07.993Z,79.06
2019-01-14T01:23:37.669Z,79.16
2019-01-14T01:26:07.791Z,79.16
2019-01-14T01:28:39.801Z,79.13
2019-01-14T01:31:09.777Z,78.93
2019-01-14T01:33:39.796Z,78.77
2019-01-14T01:36:09.636Z,78.37
2019-01-14T01:38:39.563Z,78.06
2019-01-14T01:41:09.321Z,78.84
2019-01-14T01:43:39.054Z,79.57
2019-01-14T01:46:09.110Z,79.89
2019-01-14T01:48:38.889Z,79.93
2019-01-14T01:51:08.603Z,79.69
2019-01-14T01:53:38.857Z,79.67
2019-01-14T01:56:08.620Z,79.62
2019-01-14T01:58:38.529Z,79.46
2019-01-14T02:01:08.726Z,79.80
2019-01-14T02:03:38.386Z,79.83
2019-01-14T02:06:08.092Z,79.77
2019-01-14T02:08:37.858Z,79.59
2019-01-14T02:11:07.704Z,79.98
2019-01-14T02:13:37.571Z,79.65
2019-01-14T02:16:07.432Z,78.43
2019-01-14T02:18:37.373Z,77.74
2019-01-14T02:21:07.225Z,76.81
2019-01-14T02:23:37.513Z,75.76
2019-01-14T02:26:07.430Z,75.92
2019-01-14T02:28:37.187Z,75.37
2019-01-14T02:31:07.150Z,75.24
2019-01-14T02:33:37.174Z,74.80
2019-01-14T02:36:07.009Z,72.68
2019-01-14T02:38:36.806Z,70.79
2019-01-14T02:41:06.813Z,70.11
2019-01-14T02:43:36.809Z,68.05
2019-01-14T02:46:06.652Z,66.87
2019-01-14T02:48:36.545Z,66.53
2019-01-14T02:51:06.322Z,65.51
2019-01-14T02:53:36.195Z,66.34
2019-01-14T02:56:06.327Z,65.47
2019-01-14T02:58:36.268Z,63.76
2019-01-14T03:01:06.066Z,62.46
2019-01-14T03:03:35.885Z,61.81
2019-01-14T03:06:06.027Z,60.99
2019-01-14T03:08:35.799Z,62.83
2019-01-14T03:11:05.825Z,64.12
2019-01-14T03:13:36.034Z,65.59
2019-01-14T03:16:06.065Z,66.26
2019-01-14T03:18:35.975Z,66.50
2019-01-14T03:21:05.752Z,68.04
2019-01-14T03:23:35.513Z,71.52
2019-01-14T03:26:05.431Z,73.35
2019-01-14T03:28:35.268Z,74.67
2019-01-14T03:31:05.482Z,74.41
2019-01-14T03:33:35.381Z,74.24
2019-01-14T03:36:05.211Z,74.12
2019-01-14T03:38:35.116Z,74.68
2019-01-14T03:41:04.899Z,75.37
2019-01-14T03:43:34.765Z,75.17
2019-01-14T03:46:04.649Z,75.69
2019-01-14T03:48:34.687Z,75.04
2019-01-14T03:51:04.750Z,74.87
2019-01-14T03:53:34.494Z,76.44
2019-01-14T03:56:04.401Z,77.79
2019-01-14T03:58:34.415Z,78.57
2019-01-14T04:01:04.117Z,78.51
2019-01-14T04:03:33.768Z,78.87
2019-01-14T04:06:03.765Z,79.37
2019-01-14T04:08:33.693Z,79.98
2019-01-14T04:11:03.596Z,80.13
2019-01-14T04:13:33.572Z,80.11
2019-01-14T04:16:03.344Z,79.78
2019-01-14T04:18:33.102Z,79.66
2019-01-14T04:21:03.202Z,79.85
2019-01-14T04:23:32.909Z,79.96
2019-01-14T04:26:02.737Z,79.61
2019-01-14T04:28:32.644Z,79.12
2019-01-14T04:31:02.672Z,79.06
2019-01-14T04:33:32.417Z,79.14
2019-01-14T04:36:02.368Z,79.30
2019-01-14T04:38:32.265Z,79.49
2019-01-14T04:41:02.418Z,79.29
2019-01-14T04:43:32.238Z,79.45
2019-01-14T04:46:02.065Z,79.26
2019-01-14T04:48:31.903Z,79.19
2019-01-14T04:51:01.760Z,79.00
2019-01-14T04:53:31.564Z,78.91
2019-01-14T04:56:01.492Z,79.02
2019-01-14T04:58:31.298Z,79.00
2019-01-14T05:01:01.012Z,79.01
2019-01-14T05:03:31.000Z,78.76
2019-01-14T05:06:00.733Z,78.52
2019-01-14T05:08:30.476Z,77.60
2019-01-14T05:11:00.582Z,76.97
2019-01-14T05:13:30.436Z,76.50
2019-01-14T05:16:00.133Z,76.11
2019-01-14T05:18:30.090Z,76.43
2019-01-14T05:20:59.950Z,76.52
2019-01-14T05:23:30.054Z,76.85
2019-01-14T05:26:00.480Z,76.08
2019-01-14T05:28:30.409Z,75.32
2019-01-14T05:31:00.213Z,74.05
2019-01-14T05:33:31.319Z,73.56
2019-01-14T05:36:00.966Z,72.84
2019-01-14T05:38:31.110Z,74.59
2019-01-14T05:41:00.861Z,75.36
2019-01-14T05:43:30.802Z,75.99
2019-01-14T05:46:00.861Z,76.51
2019-01-14T05:48:31.159Z,77.19
2019-01-14T05:51:01.006Z,77.42
2019-01-14T05:53:30.901Z,77.78
2019-01-14T05:56:00.845Z,78.52
2019-01-14T05:58:30.782Z,78.86
2019-01-14T06:01:00.647Z,79.00
2019-01-14T06:03:30.585Z,79.09
2019-01-14T06:06:00.529Z,79.20
2019-01-14T06:08:30.388Z,79.34
2019-01-14T06:11:00.235Z,79.20
2019-01-14T06:13:30.203Z,79.05
2019-01-14T06:16:00.092Z,78.88
2019-01-14T06:18:30.370Z,79.41
2019-01-14T06:21:00.486Z,79.45
2019-01-14T06:23:30.250Z,79.84
2019-01-14T06:26:00.240Z,79.96
2019-01-14T06:28:29.947Z,80.36
2019-01-14T06:30:59.790Z,80.54
2019-01-14T06:33:29.895Z,80.30
2019-01-14T06:35:59.924Z,80.35
2019-01-14T06:38:29.901Z,80.13
2019-01-14T06:40:59.682Z,80.01
2019-01-14T06:43:29.444Z,79.50
2019-01-14T06:45:59.362Z,79.48
2019-01-14T06:48:29.222Z,79.77
2019-01-14T06:50:58.875Z,79.49
2019-01-14T06:53:28.649Z,79.05
2019-01-14T06:55:58.499Z,78.46
2019-01-14T06:58:28.363Z,77.96
2019-01-14T07:00:58.552Z,77.33
2019-01-14T07:03:28.449Z,77.75
2019-01-14T07:05:58.450Z,78.47
2019-01-14T07:08:28.204Z,79.38
2019-01-14T07:10:58.204Z,78.58
2019-01-14T07:13:29.272Z,78.29
2019-01-14T07:15:59.070Z,78.67
2019-01-14T07:18:31.483Z,79.31
2019-01-14T07:21:01.255Z,79.42
2019-01-14T07:23:32.445Z,79.55
2019-01-14T07:26:02.250Z,79.46
2019-01-14T07:28:32.024Z,79.34
2019-01-14T07:31:01.929Z,79.69
2019-01-14T07:33:31.653Z,79.77
2019-01-14T07:36:01.870Z,80.26
2019-01-14T07:38:34.577Z,80.30
2019-01-14T07:41:04.468Z,80.09
2019-01-14T07:43:34.411Z,80.20
2019-01-14T07:46:04.254Z,80.29
2019-01-14T07:48:34.120Z,80.28
2019-01-14T07:51:04.108Z,80.32
2019-01-14T07:53:33.749Z,80.59
2019-01-14T07:56:03.580Z,80.58
2019-01-14T07:58:33.709Z,80.45
2019-01-14T08:01:03.498Z,80.48
2019-01-14T08:03:33.343Z,80.56
2019-01-14T08:06:04.387Z,80.37
2019-01-14T08:08:34.293Z,80.48
2019-01-14T08:11:04.095Z,80.48
2019-01-14T08:13:33.934Z,80.42
2019-01-14T08:16:03.826Z,80.42
2019-01-14T08:18:33.751Z,80.38
2019-01-14T08:21:03.704Z,79.80
2019-01-14T08:23:33.586Z,79.82
2019-01-14T08:26:03.482Z,79.27
2019-01-14T08:28:33.344Z,78.56
2019-01-14T08:31:03.131Z,78.70
2019-01-14T08:33:32.919Z,79.02
2019-01-14T08:36:03.228Z,79.08
2019-01-14T08:38:33.075Z,79.23
2019-01-14T08:41:02.955Z,79.44
2019-01-14T08:43:35.374Z,78.75
2019-01-14T08:46:05.664Z,78.44
2019-01-14T08:48:36.670Z,78.63
2019-01-14T08:51:06.428Z,78.58
2019-01-14T08:53:36.271Z,78.42
2019-01-14T08:56:06.428Z,78.15
2019-01-14T08:58:36.182Z,78.00
2019-01-14T09:01:06.204Z,78.73
2019-01-14T09:03:36.123Z,78.58
2019-01-14T09:06:05.823Z,78.89
2019-01-14T09:08:35.535Z,78.50
2019-01-14T09:11:05.740Z,78.92
2019-01-14T09:13:35.491Z,78.25
2019-01-14T09:16:05.609Z,78.75
2019-01-14T09:18:35.771Z,78.77
2019-01-14T09:21:05.656Z,78.26
2019-01-14T09:23:35.964Z,77.36
2019-01-14T09:26:06.119Z,77.65
2019-01-14T09:28:37.254Z,76.95
2019-01-14T09:31:07.245Z,76.35
2019-01-14T09:33:37.088Z,76.64
2019-01-14T09:36:07.268Z,75.89
2019-01-14T09:38:37.104Z,75.06
2019-01-14T09:41:07.124Z,74.91
2019-01-14T09:43:37.112Z,74.90
2019-01-14T09:46:06.899Z,74.96
2019-01-14T09:48:36.891Z,74.35
2019-01-14T09:51:06.625Z,75.10
2019-01-14T09:53:36.655Z,74.64
2019-01-14T09:56:06.407Z,74.84
2019-01-14T09:58:36.226Z,74.73
2019-01-14T10:01:06.188Z,74.71
2019-01-14T10:03:35.966Z,74.30
2019-01-14T10:06:05.805Z,73.58
2019-01-14T10:08:42.897Z,73.34
2019-01-14T10:11:07.248Z,73.94
2019-01-14T10:13:36.962Z,74.01
2019-01-14T10:16:07.920Z,73.96
2019-01-14T10:18:37.610Z,73.28
2019-01-14T10:21:07.363Z,73.60
2019-01-14T10:23:37.279Z,73.09
2019-01-14T10:26:07.727Z,72.26
2019-01-14T10:28:37.509Z,72.77
2019-01-14T10:31:07.256Z,71.90
2019-01-14T10:33:36.913Z,71.90
2019-01-14T10:36:07.027Z,72.41
2019-01-14T10:38:36.988Z,71.20
2019-01-14T10:41:06.861Z,71.56
2019-01-14T10:43:36.788Z,71.02
2019-01-14T10:46:06.557Z,69.19
2019-01-14T10:48:36.438Z,69.25
2019-01-14T10:51:06.353Z,68.73
2019-01-14T10:53:36.143Z,68.83
2019-01-14T10:56:06.699Z,69.25
2019-01-14T10:58:36.632Z,68.58
2019-01-14T11:01:06.675Z,69.26
2019-01-14T11:03:36.435Z,69.49
2019-01-14T11:06:06.876Z,70.06
2019-01-14T11:08:37.579Z,69.24
2019-01-14T11:11:07.326Z,69.84
2019-01-14T11:13:37.137Z,68.96
2019-01-14T11:16:07.291Z,68.52
2019-01-14T11:18:37.083Z,69.09
2019-01-14T11:21:06.984Z,68.58
2019-01-14T11:23:36.924Z,67.37
2019-01-14T11:26:11.418Z,67.90
2019-01-14T11:28:42.710Z,68.21
2019-01-14T11:31:12.470Z,68.66
2019-01-14T11:33:42.529Z,68.49
2019-01-14T11:36:12.264Z,68.58
2019-01-14T11:38:48.361Z,67.57
2019-01-14T11:41:18.561Z,68.48
2019-01-14T11:43:48.572Z,67.05
2019-01-14T11:46:18.434Z,67.89
2019-01-14T11:48:48.423Z,65.25
2019-01-14T11:51:18.210Z,66.35
2019-01-14T11:53:48.232Z,66.18
2019-01-14T11:56:56.383Z,65.96
2019-01-14T11:59:26.300Z,65.79
2019-01-14T12:01:56.136Z,67.86
2019-01-14T12:04:26.019Z,66.43
2019-01-14T12:06:56.910Z,67.34
2019-01-14T12:09:26.803Z,66.39
2019-01-14T12:11:57.052Z,66.43
2019-01-14T12:14:26.846Z,67.42
2019-01-14T12:16:56.717Z,66.47
2019-01-14T12:19:26.488Z,67.26
2019-01-14T12:21:56.260Z,66.77
2019-01-14T12:24:26.187Z,65.90
2019-01-14T12:26:56.131Z,66.85
2019-01-14T12:29:27.698Z,66.72
2019-01-14T12:31:57.492Z,68.03
2019-01-14T12:34:27.380Z,68.08
2019-01-14T12:36:57.111Z,68.23
2019-01-14T12:39:27.215Z,68.59
2019-01-14T12:41:58.280Z,68.09
2019-01-14T12:44:27.882Z,68.91
2019-01-14T12:46:57.689Z,68.95
2019-01-14T12:49:27.706Z,68.14
2019-01-14T12:51:57.633Z,68.21
2019-01-14T12:54:27.345Z,69.09
2019-01-14T12:56:57.245Z,68.39
2019-01-14T12:59:27.067Z,68.74
2019-01-14T13:01:56.905Z,68.86
2019-01-14T13:04:26.868Z,69.19
2019-01-14T13:06:56.610Z,69.99
2019-01-14T13:09:26.841Z,69.59
2019-01-14T13:11:56.684Z,69.53
2019-01-14T13:14:26.731Z,69.65
2019-01-14T13:16:56.601Z,68.20
2019-01-14T13:19:26.350Z,69.00
2019-01-14T13:21:57.554Z,68.97
2019-01-14T13:24:27.388Z,68.25
2019-01-14T13:26:57.351Z,69.05
2019-01-14T13:29:27.114Z,69.13
2019-01-14T13:31:56.895Z,68.90
2019-01-14T13:34:28.279Z,68.70
2019-01-14T13:36:58.339Z,69.25
2019-01-14T13:39:33.974Z,69.71
2019-01-14T13:41:59.894Z,69.69
2019-01-14T13:44:29.588Z,70.49
2019-01-14T13:46:59.474Z,70.29
2019-01-14T13:49:29.459Z,70.61
2019-01-14T13:51:59.127Z,70.56
2019-01-14T13:54:30.083Z,70.88
2019-01-14T13:57:00.127Z,70.60
2019-01-14T13:59:29.916Z,70.77
2019-01-14T14:01:59.879Z,70.54
2019-01-14T14:04:29.636Z,70.87
2019-01-14T14:06:59.433Z,71.15
2019-01-14T14:09:29.284Z,71.48
2019-01-14T14:11:59.150Z,71.17
2019-01-14T14:14:29.185Z,70.98
2019-01-14T14:16:58.923Z,71.14
2019-01-14T14:19:28.688Z,71.67
2019-01-14T14:21:58.527Z,71.95
2019-01-14T14:24:28.520Z,72.43
2019-01-14T14:26:58.253Z,72.85
2019-01-14T14:29:28.078Z,72.94
2019-01-14T14:31:57.914Z,72.66
2019-01-14T14:34:27.780Z,72.84
2019-01-14T14:36:57.615Z,73.42
2019-01-14T14:39:27.687Z,73.84
2019-01-14T14:41:57.329Z,74.09
2019-01-14T14:44:27.145Z,74.19
2019-01-14T14:46:57.462Z,74.59
2019-01-14T14:49:27.410Z,75.58
2019-01-14T14:51:57.119Z,76.33
2019-01-14T14:54:26.884Z,77.00
2019-01-14T14:56:56.522Z,77.54
2019-01-14T14:59:26.352Z,77.97
2019-01-14T15:01:58.280Z,77.75
2019-01-14T15:04:28.111Z,77.58
2019-01-14T15:06:57.828Z,77.46
2019-01-14T15:09:31.718Z,77.55
2019-01-14T15:11:59.295Z,77.41
2019-01-14T15:14:29.125Z,77.24
2019-01-14T15:16:59.064Z,77.02
2019-01-14T15:19:29.147Z,77.09
2019-01-14T15:21:58.886Z,76.59
2019-01-14T15:24:28.626Z,75.88
2019-01-14T15:26:58.344Z,75.61
2019-01-14T15:29:28.337Z,75.47
2019-01-14T15:31:58.151Z,75.01
2019-01-14T15:34:28.133Z,75.41
2019-01-14T15:36:57.884Z,75.33
2019-01-14T15:39:27.681Z,75.05
2019-01-14T15:41:57.779Z,74.55
2019-01-14T15:44:27.784Z,74.43
2019-01-14T15:46:57.643Z,74.23
2019-01-14T15:49:27.600Z,74.01
2019-01-14T15:51:57.391Z,74.06
2019-01-14T15:54:28.292Z,74.41
2019-01-14T15:56:58.073Z,74.67
2019-01-14T15:59:27.846Z,74.95
2019-01-14T16:01:57.552Z,74.63
2019-01-14T16:04:28.722Z,75.04
2019-01-14T16:06:58.509Z,75.72
2019-01-14T16:09:28.834Z,76.26
2019-01-14T16:11:58.677Z,77.06
2019-01-14T16:14:28.518Z,77.53
2019-01-14T16:16:58.326Z,77.91
2019-01-14T16:19:29.044Z,78.54
2019-01-14T16:21:59.245Z,79.18
2019-01-14T16:24:30.443Z,79.23
2019-01-14T16:27:00.289Z,79.43
2019-01-14T16:29:30.214Z,79.40
2019-01-14T16:32:00.445Z,77.96
2019-01-14T16:34:31.707Z,77.99
2019-01-14T16:37:01.591Z,77.82
2019-01-14T16:39:32.374Z,77.93
2019-01-14T16:42:03.799Z,78.30
2019-01-14T16:44:33.685Z,77.60
2019-01-14T16:47:03.406Z,77.63
2019-01-14T16:49:34.479Z,77.19
2019-01-14T16:52:04.463Z,77.15
2019-01-14T16:54:34.388Z,76.64
2019-01-14T16:57:04.620Z,76.45
2019-01-14T16:59:34.520Z,76.41
2019-01-14T17:02:04.653Z,75.57
2019-01-14T17:04:34.510Z,75.42
2019-01-14T17:07:04.192Z,75.07
2019-01-14T17:09:33.897Z,75.30
2019-01-14T17:12:05.141Z,75.26
2019-01-14T17:14:34.956Z,76.16
2019-01-14T17:17:04.856Z,76.33
2019-01-14T17:19:34.725Z,76.16
2019-01-14T17:22:04.496Z,75.96
2019-01-14T17:24:34.407Z,75.54
2019-01-14T17:27:04.268Z,75.56
2019-01-14T17:29:35.489Z,75.66
2019-01-14T17:32:05.268Z,76.08
2019-01-14T17:34:35.260Z,76.15
2019-01-14T17:37:06.479Z,75.64
2019-01-14T17:39:36.378Z,75.98
2019-01-14T17:42:06.345Z,75.69
2019-01-14T17:44:36.155Z,75.81
2019-01-14T17:47:06.127Z,76.05
2019-01-14T17:49:35.947Z,75.52
2019-01-14T17:52:05.917Z,75.12
2019-01-14T17:54:35.663Z,74.80
2019-01-14T17:57:05.383Z,75.26
2019-01-14T17:59:35.157Z,75.11
2019-01-14T18:02:05.229Z,74.93
2019-01-14T18:04:35.126Z,75.47
2019-01-14T18:07:06.293Z,75.04
2019-01-14T18:09:36.147Z,74.78
2019-01-14T18:12:05.924Z,74.42
2019-01-14T18:14:35.725Z,74.42
2019-01-14T18:17:05.592Z,74.35
2019-01-14T18:19:35.599Z,74.61
2019-01-14T18:22:05.796Z,74.20
2019-01-14T18:24:35.649Z,74.23
2019-01-14T18:27:05.493Z,74.13
2019-01-14T18:29:35.410Z,74.13
2019-01-14T18:32:06.539Z,74.01
2019-01-14T18:34:36.383Z,74.08
2019-01-14T18:37:06.109Z,73.97
2019-01-14T18:39:35.943Z,74.46
2019-01-14T18:42:05.723Z,74.58
2019-01-14T18:44:35.455Z,75.21
2019-01-14T18:47:05.299Z,74.94
2019-01-14T18:49:35.227Z,75.32
2019-01-14T18:52:05.299Z,75.54
2019-01-14T18:54:35.098Z,75.82
2019-01-14T18:57:06.076Z,75.86
2019-01-14T18:59:35.881Z,76.29
2019-01-14T19:02:06.074Z,76.50
2019-01-14T19:04:35.887Z,76.37
2019-01-14T19:07:08.352Z,76.02
2019-01-14T19:09:38.202Z,76.39
2019-01-14T19:12:08.233Z,76.34
2019-01-14T19:14:38.055Z,77.00
2019-01-14T19:17:09.162Z,76.98
2019-01-14T19:19:39.228Z,76.74
2019-01-14T19:22:09.223Z,77.10
2019-01-14T19:24:39.034Z,77.31
2019-01-14T19:27:08.801Z,76.97
2019-01-14T19:29:38.643Z,77.16
2019-01-14T19:32:08.557Z,77.15
2019-01-14T19:34:38.316Z,77.21
2019-01-14T19:37:07.993Z,77.16
2019-01-14T19:39:37.881Z,76.68
2019-01-14T19:42:07.855Z,76.64
2019-01-14T19:44:37.648Z,75.93
2019-01-14T19:47:07.429Z,75.93
2019-01-14T19:49:37.288Z,75.81
2019-01-14T19:52:07.303Z,75.19
2019-01-14T19:54:37.006Z,75.37
2019-01-14T19:57:08.772Z,75.48
2019-01-14T19:59:38.552Z,75.86
2019-01-14T20:02:09.073Z,75.54
2019-01-14T20:04:40.252Z,75.47
2019-01-14T20:07:11.143Z,75.40
2019-01-14T20:09:41.595Z,75.61
2019-01-14T20:12:11.662Z,75.60
2019-01-14T20:14:41.646Z,75.87
2019-01-14T20:17:11.345Z,75.62
2019-01-14T20:19:41.335Z,75.51
2019-01-14T20:22:11.203Z,76.23
2019-01-14T20:24:42.169Z,76.30
2019-01-14T20:27:12.034Z,76.23
2019-01-14T20:29:41.944Z,76.17
2019-01-14T20:32:11.899Z,76.45
2019-01-14T20:34:41.798Z,76.24
2019-01-14T20:37:11.524Z,76.85
2019-01-14T20:39:41.461Z,77.05
2019-01-14T20:42:11.280Z,77.16
2019-01-14T20:44:41.090Z,77.32
2019-01-14T20:47:10.952Z,77.01
2019-01-14T20:49:40.984Z,77.19
2019-01-14T20:52:12.297Z,77.12
2019-01-14T20:54:42.155Z,76.69
2019-01-14T20:57:11.964Z,76.96
2019-01-14T20:59:41.920Z,77.70
2019-01-14T21:02:11.801Z,78.04
2019-01-14T21:04:41.404Z,77.87
2019-01-14T21:07:12.319Z,77.57
2019-01-14T21:09:42.204Z,78.16
2019-01-14T21:12:12.092Z,78.12
2019-01-14T21:14:41.883Z,78.69
2019-01-14T21:17:11.768Z,78.77
2019-01-14T21:19:41.422Z,79.04
2019-01-14T21:22:11.654Z,78.67
2019-01-14T21:24:42.570Z,78.42
2019-01-14T21:27:12.387Z,78.19
2019-01-14T21:29:42.112Z,78.10
2019-01-14T21:32:12.191Z,76.93
2019-01-14T21:34:41.946Z,76.89
2019-01-14T21:37:11.825Z,77.17
2019-01-14T21:39:41.722Z,77.48
2019-01-14T21:42:11.502Z,78.30
2019-01-14T21:44:41.389Z,77.27
2019-01-14T21:47:11.428Z,76.69
2019-01-14T21:49:41.142Z,76.03
2019-01-14T21:52:10.919Z,75.53
2019-01-14T21:54:40.629Z,75.64
2019-01-14T21:57:10.300Z,75.05
2019-01-14T21:59:40.069Z,74.40
2019-01-14T22:02:09.898Z,74.96
2019-01-14T22:04:39.760Z,74.12
2019-01-14T22:07:09.704Z,75.06
2019-01-14T22:09:39.414Z,74.99
2019-01-14T22:12:09.432Z,75.63
2019-01-14T22:14:39.139Z,75.43
2019-01-14T22:17:09.987Z,75.54
2019-01-14T22:19:39.740Z,75.48
2019-01-14T22:22:09.615Z,75.74
2019-01-14T22:24:39.559Z,76.14
2019-01-14T22:27:10.628Z,76.24
2019-01-14T22:29:40.487Z,76.66
2019-01-14T22:32:10.116Z,76.12
2019-01-14T22:34:39.870Z,75.70
2019-01-14T22:37:10.764Z,75.87
2019-01-14T22:39:40.704Z,75.69
2019-01-14T22:42:10.586Z,75.84
2019-01-14T22:44:41.962Z,75.81
2019-01-14T22:47:12.129Z,75.56
2019-01-14T22:49:41.959Z,75.67
2019-01-14T22:52:11.712Z,75.60
2019-01-14T22:54:41.632Z,75.86
2019-01-14T22:57:11.453Z,75.89
2019-01-14T22:59:41.463Z,75.94
2019-01-14T23:02:11.281Z,76.10
2019-01-14T23:04:41.136Z,76.31
2019-01-14T23:07:10.839Z,76.24
2019-01-14T23:09:40.607Z,76.57
2019-01-14T23:12:10.604Z,76.48
2019-01-14T23:14:40.376Z,76.89
2019-01-14T23:17:10.264Z,76.76
2019-01-14T23:19:40.150Z,76.61
2019-01-14T23:22:10.016Z,76.55
2019-01-14T23:24:40.416Z,76.41
2019-01-14T23:27:10.128Z,76.06
2019-01-14T23:29:39.888Z,76.15
2019-01-14T23:32:09.551Z,75.92
2019-01-14T23:34:39.448Z,76.17
2019-01-14T23:37:09.198Z,76.79
2019-01-14T23:39:39.011Z,76.35
2019-01-14T23:42:08.956Z,76.86
2019-01-14T23:44:38.815Z,76.83
2019-01-14T23:47:08.966Z,76.63
2019-01-14T23:49:38.903Z,76.45
2019-01-14T23:52:08.696Z,76.70
2019-01-14T23:54:38.613Z,76.19
2019-01-14T23:57:08.507Z,75.71
2019-01-14T23:59:38.217Z,75.61
